createdAt,value
2018-08-22T00:00:25.613Z,0
2018-08-22T00:01:25.863Z,0
2018-08-22T00:02:25.850Z,0
2018-08-22T00:03:25.845Z,0
2018-08-22T00:04:25.854Z,0
2018-08-22T00:05:25.835Z,0
2018-08-22T00:06:25.824Z,0
2018-08-22T00:07:25.568Z,0
2018-08-22T00:08:25.827Z,0
2018-08-22T00:09:25.808Z,0
2018-08-22T00:10:25.552Z,0
2018-08-22T00:11:25.795Z,0
2018-08-22T00:12:25.542Z,0
2018-08-22T00:13:25.290Z,0
2018-08-22T00:14:25.275Z,0
2018-08-22T00:15:25.997Z,0
2018-08-22T00:16:25.515Z,0
2018-08-22T00:17:25.768Z,0
2018-08-22T00:18:25.751Z,0
2018-08-22T00:19:25.254Z,0
2018-08-22T00:20:25.745Z,0
2018-08-22T00:21:25.733Z,0
2018-08-22T00:22:25.769Z,0
2018-08-22T00:23:25.720Z,0
2018-08-22T00:24:25.228Z,0
2018-08-22T00:25:25.914Z,0
2018-08-22T00:26:25.451Z,0
2018-08-22T00:27:25.752Z,0
2018-08-22T00:28:25.696Z,0
2018-08-22T00:29:25.847Z,0
2018-08-22T00:30:25.430Z,0
2018-08-22T00:31:25.680Z,0
2018-08-22T00:32:25.665Z,0
2018-08-22T00:33:25.661Z,0
2018-08-22T00:34:25.652Z,0
2018-08-22T00:35:25.648Z,0
2018-08-22T00:36:25.391Z,0
2018-08-22T00:37:25.133Z,0
2018-08-22T00:38:25.380Z,0
2018-08-22T00:39:25.621Z,0
2018-08-22T00:40:25.619Z,0
2018-08-22T00:41:25.608Z,0
2018-08-22T00:42:25.616Z,0
2018-08-22T00:43:25.593Z,0
2018-08-22T00:44:25.337Z,0
2018-08-22T00:45:25.339Z,0
2018-08-22T00:46:25.576Z,0
2018-08-22T00:47:25.566Z,0
2018-08-22T00:48:25.565Z,0
2018-08-22T00:49:25.557Z,0
2018-08-22T00:50:25.300Z,0
2018-08-22T00:51:25.292Z,0
2018-08-22T00:52:25.289Z,0
2018-08-22T00:53:25.539Z,0
2018-08-22T00:54:25.024Z,0
2018-08-22T00:55:25.018Z,0
2018-08-22T00:56:25.260Z,0
2018-08-22T00:57:25.510Z,0
2018-08-22T00:58:25.506Z,0
2018-08-22T00:59:25.498Z,0
2018-08-22T01:00:25.498Z,0
2018-08-22T01:01:25.482Z,0
2018-08-22T01:02:25.223Z,0
2018-08-22T01:03:25.466Z,0
2018-08-22T01:04:24.959Z,0
2018-08-22T01:05:25.453Z,0
2018-08-22T01:06:25.449Z,0
2018-08-22T01:07:25.440Z,0
2018-08-22T01:08:25.445Z,0
2018-08-22T01:09:25.176Z,0
2018-08-22T01:10:25.423Z,0
2018-08-22T01:11:25.162Z,0
2018-08-22T01:12:25.411Z,0
2018-08-22T01:13:25.402Z,0
2018-08-22T01:14:25.398Z,0
2018-08-22T01:15:25.387Z,0
2018-08-22T01:16:25.378Z,0
2018-08-22T01:17:25.377Z,0
2018-08-22T01:18:25.367Z,0
2018-08-22T01:19:25.370Z,0
2018-08-22T01:20:25.359Z,0
2018-08-22T01:21:25.361Z,0
2018-08-22T01:22:25.340Z,0
2018-08-22T01:23:25.089Z,0
2018-08-22T01:24:25.337Z,0
2018-08-22T01:25:25.074Z,0
2018-08-22T01:26:25.068Z,0
2018-08-22T01:27:25.097Z,0
2018-08-22T01:28:25.051Z,0
2018-08-22T01:29:25.295Z,0
2018-08-22T01:30:25.037Z,0
2018-08-22T01:31:25.280Z,0
2018-08-22T01:32:25.285Z,0
2018-08-22T01:33:25.269Z,0
2018-08-22T01:34:25.268Z,0
2018-08-22T01:35:25.251Z,0
2018-08-22T01:36:25.000Z,0
2018-08-22T01:37:25.242Z,0
2018-08-22T01:38:24.982Z,0
2018-08-22T01:39:24.726Z,0
2018-08-22T01:40:24.718Z,0
2018-08-22T01:41:25.214Z,0
2018-08-22T01:42:25.208Z,0
2018-08-22T01:43:24.699Z,0
2018-08-22T01:44:25.190Z,0
2018-08-22T01:45:25.234Z,0
2018-08-22T01:46:25.188Z,0
2018-08-22T01:47:25.171Z,0
2018-08-22T01:48:25.179Z,0
2018-08-22T01:49:24.910Z,0
2018-08-22T01:50:25.154Z,0
2018-08-22T01:51:24.894Z,0
2018-08-22T01:52:25.139Z,0
2018-08-22T01:53:25.133Z,0
2018-08-22T01:54:25.125Z,0
2018-08-22T01:55:25.123Z,0
2018-08-22T01:56:24.862Z,0
2018-08-22T01:57:24.859Z,0
2018-08-22T01:58:25.097Z,0
2018-08-22T01:59:25.094Z,0
2018-08-22T02:00:24.835Z,0
2018-08-22T02:01:25.090Z,0
2018-08-22T02:02:24.821Z,0
2018-08-22T02:03:24.813Z,0
2018-08-22T02:04:25.057Z,0
2018-08-22T02:05:25.051Z,0
2018-08-22T02:06:25.043Z,0
2018-08-22T02:07:25.035Z,0
2018-08-22T02:08:25.075Z,0
2018-08-22T02:09:25.020Z,0
2018-08-22T02:10:24.765Z,0
2018-08-22T02:11:24.821Z,0
2018-08-22T02:12:24.756Z,0
2018-08-22T02:13:24.994Z,0
2018-08-22T02:14:24.736Z,0
2018-08-22T02:15:24.983Z,0
2018-08-22T02:16:24.470Z,0
2018-08-22T02:17:24.715Z,0
2018-08-22T02:18:24.960Z,0
2018-08-22T02:19:24.699Z,0
2018-08-22T02:20:24.695Z,0
2018-08-22T02:21:24.936Z,0
2018-08-22T02:22:24.681Z,0
2018-08-22T02:23:24.675Z,0
2018-08-22T02:24:24.666Z,0
2018-08-22T02:25:25.060Z,0
2018-08-22T02:26:24.911Z,0
2018-08-22T02:27:24.908Z,0
2018-08-22T02:28:24.895Z,0
2018-08-22T02:29:24.894Z,0
2018-08-22T02:30:24.903Z,0
2018-08-22T02:31:24.887Z,0
2018-08-22T02:32:24.868Z,0
2018-08-22T02:33:24.605Z,0
2018-08-22T02:34:24.600Z,0
2018-08-22T02:35:24.848Z,0
2018-08-22T02:36:24.586Z,0
2018-08-22T02:37:24.579Z,0
2018-08-22T02:38:24.819Z,0
2018-08-22T02:39:24.562Z,0
2018-08-22T02:40:24.808Z,0
2018-08-22T02:41:24.803Z,0
2018-08-22T02:42:24.792Z,0
2018-08-22T02:43:24.792Z,0
2018-08-22T02:44:24.539Z,0
2018-08-22T02:45:24.776Z,0
2018-08-22T02:46:24.772Z,0
2018-08-22T02:47:24.756Z,0
2018-08-22T02:48:24.747Z,0
2018-08-22T02:49:24.739Z,0
2018-08-22T02:50:24.741Z,0
2018-08-22T02:51:24.728Z,0
2018-08-22T02:52:24.724Z,0
2018-08-22T02:53:24.725Z,0
2018-08-22T02:54:24.705Z,0
2018-08-22T02:55:24.456Z,0
2018-08-22T02:56:24.695Z,0
2018-08-22T02:57:24.685Z,0
2018-08-22T02:58:24.682Z,0
2018-08-22T02:59:24.417Z,0
2018-08-22T03:00:24.665Z,0
2018-08-22T03:01:24.661Z,0
2018-08-22T03:02:24.395Z,0
2018-08-22T03:03:24.645Z,0
2018-08-22T03:04:24.382Z,0
2018-08-22T03:05:24.626Z,0
2018-08-22T03:06:24.618Z,0
2018-08-22T03:07:24.616Z,0
2018-08-22T03:08:24.632Z,0
2018-08-22T03:09:24.349Z,0
2018-08-22T03:10:24.590Z,0
2018-08-22T03:11:24.579Z,0
2018-08-22T03:12:24.579Z,0
2018-08-22T03:13:24.320Z,0
2018-08-22T03:14:24.559Z,0
2018-08-22T03:15:24.301Z,0
2018-08-22T03:16:24.292Z,0
2018-08-22T03:17:24.289Z,0
2018-08-22T03:18:24.533Z,0
2018-08-22T03:19:24.526Z,0
2018-08-22T03:20:24.520Z,4
2018-08-22T03:21:24.520Z,4
2018-08-22T03:22:24.253Z,0
2018-08-22T03:23:24.494Z,4
2018-08-22T03:24:24.245Z,4
2018-08-22T03:25:24.482Z,4
2018-08-22T03:26:24.396Z,4
2018-08-22T03:27:24.464Z,4
2018-08-22T03:28:24.460Z,8
2018-08-22T03:29:24.451Z,8
2018-08-22T03:30:23.951Z,8
2018-08-22T03:31:24.192Z,12
2018-08-22T03:32:24.442Z,12
2018-08-22T03:33:24.425Z,12
2018-08-22T03:34:24.422Z,16
2018-08-22T03:35:24.414Z,20
2018-08-22T03:36:24.152Z,24
2018-08-22T03:37:24.393Z,28
2018-08-22T03:38:24.388Z,32
2018-08-22T03:39:23.876Z,36
2018-08-22T03:40:24.372Z,40
2018-08-22T03:41:24.367Z,44
2018-08-22T03:42:24.360Z,52
2018-08-22T03:43:24.347Z,64
2018-08-22T03:44:24.339Z,72
2018-08-22T03:45:24.337Z,80
2018-08-22T03:46:24.327Z,88
2018-08-22T03:47:24.068Z,100
2018-08-22T03:48:24.316Z,112
2018-08-22T03:49:24.054Z,128
2018-08-22T03:50:24.052Z,144
2018-08-22T03:51:23.787Z,160
2018-08-22T03:52:24.033Z,180
2018-08-22T03:53:24.281Z,200
2018-08-22T03:54:24.270Z,220
2018-08-22T03:55:24.016Z,240
2018-08-22T03:56:24.268Z,264
2018-08-22T03:57:24.000Z,288
2018-08-22T03:58:24.239Z,312
2018-08-22T03:59:23.984Z,332
2018-08-22T04:00:24.228Z,356
2018-08-22T04:01:24.223Z,388
2018-08-22T04:02:24.217Z,416
2018-08-22T04:03:24.203Z,452
2018-08-22T04:04:24.205Z,484
2018-08-22T04:05:24.192Z,520
2018-08-22T04:06:23.930Z,564
2018-08-22T04:07:24.180Z,604
2018-08-22T04:08:23.917Z,648
2018-08-22T04:09:24.164Z,692
2018-08-22T04:10:23.902Z,740
2018-08-22T04:11:24.146Z,792
2018-08-22T04:12:24.136Z,840
2018-08-22T04:13:24.131Z,892
2018-08-22T04:14:23.870Z,940
2018-08-22T04:15:24.129Z,996
2018-08-22T04:16:24.111Z,1048
2018-08-22T04:17:24.104Z,1108
2018-08-22T04:18:24.094Z,1172
2018-08-22T04:19:24.086Z,1244
2018-08-22T04:20:24.087Z,1332
2018-08-22T04:21:23.820Z,1420
2018-08-22T04:22:23.822Z,1516
2018-08-22T04:23:24.062Z,1612
2018-08-22T04:24:23.548Z,1700
2018-08-22T04:25:24.042Z,1780
2018-08-22T04:26:24.041Z,1876
2018-08-22T04:27:24.032Z,1988
2018-08-22T04:28:24.023Z,2140
2018-08-22T04:29:23.769Z,2296
2018-08-22T04:30:23.765Z,2428
2018-08-22T04:31:23.760Z,2564
2018-08-22T04:32:23.995Z,2700
2018-08-22T04:33:23.990Z,2868
2018-08-22T04:34:23.984Z,3020
2018-08-22T04:35:23.978Z,3172
2018-08-22T04:36:23.972Z,3312
2018-08-22T04:37:24.153Z,3440
2018-08-22T04:38:23.704Z,3572
2018-08-22T04:39:23.957Z,3708
2018-08-22T04:40:23.948Z,3900
2018-08-22T04:41:23.690Z,4068
2018-08-22T04:42:23.939Z,4260
2018-08-22T04:43:23.929Z,4464
2018-08-22T04:44:23.922Z,4664
2018-08-22T04:45:23.926Z,4932
2018-08-22T04:46:23.919Z,5068
2018-08-22T04:47:23.911Z,5156
2018-08-22T04:48:24.147Z,5368
2018-08-22T04:49:23.899Z,5380
2018-08-22T04:50:23.895Z,5564
2018-08-22T04:51:23.897Z,5640
2018-08-22T04:52:23.890Z,5756
2018-08-22T04:53:23.885Z,6132
2018-08-22T04:54:23.880Z,6404
2018-08-22T04:55:23.624Z,6844
2018-08-22T04:56:23.622Z,7012
2018-08-22T04:57:23.618Z,7120
2018-08-22T04:58:23.616Z,7244
2018-08-22T04:59:23.614Z,7268
2018-08-22T05:00:23.878Z,7508
2018-08-22T05:01:23.611Z,7728
2018-08-22T05:02:23.853Z,8060
2018-08-22T05:03:23.611Z,8416
2018-08-22T05:04:23.859Z,8656
2018-08-22T05:05:23.344Z,8728
2018-08-22T05:06:23.851Z,9000
2018-08-22T05:07:23.595Z,9320
2018-08-22T05:08:23.603Z,9664
2018-08-22T05:09:23.853Z,9748
2018-08-22T05:10:23.841Z,9972
2018-08-22T05:11:23.589Z,10096
2018-08-22T05:12:23.837Z,10460
2018-08-22T05:13:23.837Z,10672
2018-08-22T05:14:23.852Z,10772
2018-08-22T05:15:23.839Z,11344
2018-08-22T05:16:23.837Z,11404
2018-08-22T05:17:23.842Z,11248
2018-08-22T05:18:23.841Z,12024
2018-08-22T05:19:23.841Z,12040
2018-08-22T05:20:23.837Z,11892
2018-08-22T05:21:23.848Z,12056
2018-08-22T05:22:23.597Z,12504
2018-08-22T05:23:23.592Z,13356
2018-08-22T05:24:23.849Z,13644
2018-08-22T05:25:23.600Z,12940
2018-08-22T05:26:25.131Z,12972
2018-08-22T05:27:23.856Z,14944
2018-08-22T05:28:23.853Z,15776
2018-08-22T05:29:23.600Z,14624
2018-08-22T05:30:23.859Z,14240
2018-08-22T05:31:23.862Z,15616
2018-08-22T05:32:23.871Z,16032
2018-08-22T05:33:23.618Z,16288
2018-08-22T05:34:23.873Z,16256
2018-08-22T05:35:23.878Z,15776
2018-08-22T05:36:23.880Z,16832
2018-08-22T05:37:23.887Z,17376
2018-08-22T05:38:23.894Z,15744
2018-08-22T05:39:23.641Z,15648
2018-08-22T05:40:23.889Z,16608
2018-08-22T05:41:23.902Z,16192
2018-08-22T05:42:23.902Z,15328
2018-08-22T05:43:23.656Z,15616
2018-08-22T05:44:23.658Z,16256
2018-08-22T05:45:23.914Z,15936
2018-08-22T05:47:23.928Z,16512
2018-08-22T05:48:23.681Z,16832
2018-08-22T05:49:24.247Z,16672
2018-08-22T05:50:23.975Z,17408
2018-08-22T05:51:23.698Z,18528
2018-08-22T05:52:25.230Z,19424
2018-08-22T05:53:23.967Z,19872
2018-08-22T05:54:25.296Z,20256
2018-08-22T05:55:26.716Z,20640
2018-08-22T05:56:23.988Z,21184
2018-08-22T05:57:23.985Z,22336
2018-08-22T05:58:23.741Z,22848
2018-08-22T05:59:24.001Z,22048
2018-08-22T06:00:23.772Z,22016
2018-08-22T06:01:24.014Z,24576
2018-08-22T06:02:24.023Z,26176
2018-08-22T06:03:24.059Z,24672
2018-08-22T06:04:23.547Z,23040
2018-08-22T06:05:24.046Z,23840
2018-08-22T06:06:23.806Z,26304
2018-08-22T06:07:23.804Z,26816
2018-08-22T06:08:24.070Z,25312
2018-08-22T06:09:23.822Z,24960
2018-08-22T06:10:23.830Z,25056
2018-08-22T06:11:23.836Z,23136
2018-08-22T06:12:23.856Z,21728
2018-08-22T06:13:24.156Z,22976
2018-08-22T06:14:24.118Z,25792
2018-08-22T06:15:23.869Z,26304
2018-08-22T06:16:23.890Z,24928
2018-08-22T06:17:23.635Z,23264
2018-08-22T06:18:23.899Z,22784
2018-08-22T06:19:24.164Z,22976
2018-08-22T06:20:24.169Z,23008
2018-08-22T06:21:23.922Z,23264
2018-08-22T06:22:24.183Z,23520
2018-08-22T06:23:23.688Z,23744
2018-08-22T06:24:23.948Z,24480
2018-08-22T06:25:24.239Z,24896
2018-08-22T06:26:24.225Z,24864
2018-08-22T06:27:23.980Z,24640
2018-08-22T06:28:24.251Z,24032
2018-08-22T06:29:24.256Z,24192
2018-08-22T06:30:24.264Z,27360
2018-08-22T06:31:24.267Z,31680
2018-08-22T06:32:24.295Z,35200
2018-08-22T06:33:24.294Z,38112
2018-08-22T06:34:24.049Z,37248
2018-08-22T06:35:24.310Z,35648
2018-08-22T06:36:24.840Z,37984
2018-08-22T06:37:24.350Z,42112
2018-08-22T06:38:24.356Z,47232
2018-08-22T06:39:24.102Z,51136
2018-08-22T06:40:24.114Z,51424
2018-08-22T06:41:24.626Z,50624
2018-08-22T06:42:24.378Z,49280
2018-08-22T06:43:24.395Z,47872
2018-08-22T06:44:24.433Z,46752
2018-08-22T06:45:24.417Z,50592
2018-08-22T06:46:24.421Z,57728
2018-08-22T06:47:24.851Z,63616
2018-08-22T06:48:24.194Z,65120
2018-08-22T06:49:24.203Z,63232
2018-08-22T06:50:24.532Z,60608
2018-08-22T06:51:24.483Z,55616
2018-08-22T06:52:24.490Z,50208
2018-08-22T06:53:24.248Z,46496
2018-08-22T06:54:24.009Z,43872
2018-08-22T06:55:24.277Z,41792
2018-08-22T06:56:24.539Z,43328
2018-08-22T06:57:24.665Z,45760
2018-08-22T06:58:24.570Z,49536
2018-08-22T06:59:24.575Z,53344
2018-08-22T07:00:24.080Z,52416
2018-08-22T07:01:24.595Z,50912
2018-08-22T07:02:24.612Z,52000
2018-08-22T07:03:24.616Z,47136
2018-08-22T07:04:24.125Z,41856
2018-08-22T07:05:24.389Z,40800
2018-08-22T07:06:24.654Z,40384
2018-08-22T07:07:24.665Z,39616
2018-08-22T07:08:24.703Z,40064
2018-08-22T07:09:24.435Z,37760
2018-08-22T07:10:24.447Z,34336
2018-08-22T07:11:37.448Z,33536
2018-08-22T07:12:25.946Z,33728
2018-08-22T07:13:24.484Z,33952
2018-08-22T07:14:24.496Z,34784
2018-08-22T07:15:24.763Z,38208
2018-08-22T07:16:24.773Z,40768
2018-08-22T07:17:24.783Z,42112
2018-08-22T07:18:24.554Z,43296
2018-08-22T07:19:24.815Z,44256
2018-08-22T07:20:24.820Z,44320
2018-08-22T07:21:24.329Z,44416
2018-08-22T07:22:24.853Z,47712
2018-08-22T07:23:24.868Z,52224
2018-08-22T07:24:24.880Z,51104
2018-08-22T07:25:24.878Z,47392
2018-08-22T07:26:24.891Z,44352
2018-08-22T07:27:24.657Z,42752
2018-08-22T07:28:24.669Z,42816
2018-08-22T07:29:37.161Z,41248
2018-08-22T07:30:24.944Z,40896
2018-08-22T07:31:24.954Z,46272
2018-08-22T07:32:25.523Z,51584
2018-08-22T07:33:24.981Z,56192
2018-08-22T07:34:24.739Z,61216
2018-08-22T07:35:25.002Z,64864
2018-08-22T07:36:25.014Z,63392
2018-08-22T07:37:25.029Z,60352
2018-08-22T07:38:25.042Z,60096
2018-08-22T07:39:25.068Z,58784
2018-08-22T07:40:24.813Z,53184
2018-08-22T07:41:24.577Z,52832
2018-08-22T07:42:24.588Z,60448
2018-08-22T07:43:25.104Z,66304
2018-08-22T07:44:24.878Z,68704
2018-08-22T07:45:25.130Z,69536
2018-08-22T07:46:24.899Z,74016
2018-08-22T07:47:24.912Z,84672
2018-08-22T07:48:25.172Z,88192
2018-08-22T07:49:25.186Z,86656
2018-08-22T07:50:25.825Z,89536
2018-08-22T07:52:24.982Z,102752
2018-08-22T07:53:25.866Z,95840
2018-08-22T07:54:25.257Z,83616
2018-08-22T07:55:24.769Z,77632
2018-08-22T07:56:25.289Z,86176
2018-08-22T07:57:25.310Z,92576
2018-08-22T07:58:26.590Z,87104
2018-08-22T07:59:25.337Z,80288
2018-08-22T08:00:25.094Z,82528
2018-08-22T08:01:25.363Z,88096
2018-08-22T08:02:27.673Z,87040
2018-08-22T08:03:25.389Z,85664
2018-08-22T08:04:25.158Z,78560
2018-08-22T08:05:25.773Z,56288
2018-08-22T08:06:25.437Z,44576
2018-08-22T08:07:24.994Z,51616
2018-08-22T08:08:25.221Z,58016
2018-08-22T08:09:25.489Z,58080
2018-08-22T08:10:25.500Z,54016
2018-08-22T08:11:25.261Z,55616
2018-08-22T08:12:25.278Z,63520
2018-08-22T08:13:25.328Z,68448
2018-08-22T08:14:25.066Z,66144
2018-08-22T08:15:25.601Z,65472
2018-08-22T08:16:25.332Z,70016
2018-08-22T08:17:27.785Z,70816
2018-08-22T08:18:25.724Z,62624
2018-08-22T08:19:28.261Z,53120
2018-08-22T08:20:25.655Z,48288
2018-08-22T08:21:25.657Z,48672
2018-08-22T08:22:25.419Z,51872
2018-08-22T08:23:25.680Z,54208
2018-08-22T08:24:25.693Z,53984
2018-08-22T08:25:25.704Z,57600
2018-08-22T08:26:25.481Z,63936
2018-08-22T08:27:25.742Z,67520
2018-08-22T08:28:32.238Z,64928
2018-08-22T08:29:25.525Z,61728
2018-08-22T08:30:25.837Z,61504
2018-08-22T08:31:25.530Z,57920
2018-08-22T08:32:25.802Z,51616
2018-08-22T08:33:25.555Z,40800
2018-08-22T08:34:25.569Z,18432
2018-08-22T08:35:25.829Z,7912
2018-08-22T08:36:25.589Z,7692
2018-08-22T08:37:25.599Z,7636
2018-08-22T08:38:25.636Z,7620
2018-08-22T08:39:25.672Z,7608
2018-08-22T08:40:25.882Z,7596
2018-08-22T08:41:25.680Z,7580
2018-08-22T08:42:25.902Z,7552
2018-08-22T08:43:26.309Z,7540
2018-08-22T08:44:25.671Z,7524
2018-08-22T08:45:25.679Z,7492
2018-08-22T08:46:25.434Z,7456
2018-08-22T08:47:25.976Z,7424
2018-08-22T08:48:25.948Z,7388
2018-08-22T08:49:26.048Z,7364
2018-08-22T08:51:25.785Z,7356
2018-08-22T08:52:26.015Z,7340
2018-08-22T08:53:25.985Z,7320
2018-08-22T08:54:25.738Z,7304
2018-08-22T08:55:26.058Z,7284
2018-08-22T08:56:26.028Z,7268
2018-08-22T08:57:26.522Z,7252
2018-08-22T08:58:25.780Z,7248
2018-08-22T08:59:26.019Z,7240
2018-08-22T09:00:26.040Z,7224
2018-08-22T09:01:26.025Z,7196
2018-08-22T09:03:26.039Z,7156
2018-08-22T09:04:26.104Z,7152
2018-08-22T09:05:26.080Z,7152
2018-08-22T09:06:26.215Z,7148
2018-08-22T09:07:25.796Z,7132
2018-08-22T09:08:25.798Z,7112
2018-08-22T09:09:26.059Z,7096
2018-08-22T09:10:26.059Z,7072
2018-08-22T09:11:26.075Z,7052
2018-08-22T09:12:26.516Z,7024
2018-08-22T09:13:26.081Z,7000
2018-08-22T09:14:26.071Z,6980
2018-08-22T09:15:26.156Z,6956
2018-08-22T09:16:25.828Z,6924
2018-08-22T09:17:26.442Z,6896
2018-08-22T09:18:26.088Z,6876
2018-08-22T09:19:26.116Z,6852
2018-08-22T09:20:26.085Z,6832
2018-08-22T09:21:26.265Z,6816
2018-08-22T09:22:25.845Z,6788
2018-08-22T09:23:26.089Z,6756
2018-08-22T09:24:26.260Z,6728
2018-08-22T09:25:26.093Z,6700
2018-08-22T09:26:26.099Z,6688
2018-08-22T09:27:25.853Z,6676
2018-08-22T09:28:25.852Z,6656
2018-08-22T09:29:26.157Z,6640
2018-08-22T09:30:25.859Z,6616
2018-08-22T09:31:26.205Z,6604
2018-08-22T09:32:26.108Z,6600
2018-08-22T09:33:26.114Z,6604
2018-08-22T09:34:26.136Z,6596
2018-08-22T09:35:25.966Z,6580
2018-08-22T09:36:26.177Z,6572
2018-08-22T09:37:26.116Z,6560
2018-08-22T09:38:26.120Z,6548
2018-08-22T09:39:26.579Z,6540
2018-08-22T09:40:26.251Z,6528
2018-08-22T09:41:26.132Z,6508
2018-08-22T09:42:25.882Z,6492
2018-08-22T09:43:26.186Z,6476
2018-08-22T09:44:26.176Z,6448
2018-08-22T09:45:26.135Z,6432
2018-08-22T09:46:26.157Z,6412
2018-08-22T09:47:25.640Z,6392
2018-08-22T09:48:26.177Z,6364
2018-08-22T09:49:26.141Z,6340
2018-08-22T09:50:26.143Z,6316
2018-08-22T09:51:25.890Z,6296
2018-08-22T09:52:26.148Z,6292
2018-08-22T09:53:26.145Z,6292
2018-08-22T09:54:26.147Z,6304
2018-08-22T09:55:26.155Z,6312
2018-08-22T09:56:26.149Z,6316
2018-08-22T09:57:25.899Z,6312
2018-08-22T09:58:26.021Z,6308
2018-08-22T09:59:26.155Z,6296
2018-08-22T10:00:26.223Z,6288
2018-08-22T10:01:25.655Z,6268
2018-08-22T10:02:26.166Z,6256
2018-08-22T10:03:25.909Z,6248
2018-08-22T10:04:26.166Z,6228
2018-08-22T10:05:25.915Z,6204
2018-08-22T10:06:26.169Z,6172
2018-08-22T10:07:26.422Z,6144
2018-08-22T10:08:25.917Z,6132
2018-08-22T10:09:26.182Z,6116
2018-08-22T10:10:26.248Z,6100
2018-08-22T10:11:25.925Z,6080
2018-08-22T10:12:26.185Z,6056
2018-08-22T10:13:26.198Z,6036
2018-08-22T10:14:26.185Z,6012
2018-08-22T10:15:26.179Z,5996
2018-08-22T10:16:25.933Z,5992
2018-08-22T10:17:26.540Z,5988
2018-08-22T10:18:26.198Z,5984
2018-08-22T10:19:26.191Z,5976
2018-08-22T10:20:26.223Z,5972
2018-08-22T10:21:25.688Z,5952
2018-08-22T10:22:26.201Z,5932
2018-08-22T10:23:26.040Z,5912
2018-08-22T10:24:25.699Z,5896
2018-08-22T10:25:25.945Z,5876
2018-08-22T10:26:26.263Z,5856
2018-08-22T10:27:25.955Z,5852
2018-08-22T10:28:26.208Z,5840
2018-08-22T10:29:26.206Z,5824
2018-08-22T10:30:25.956Z,5808
2018-08-22T10:31:26.214Z,5792
2018-08-22T10:32:26.211Z,5780
2018-08-22T10:33:25.968Z,5764
2018-08-22T10:34:26.217Z,5744
2018-08-22T10:35:26.217Z,5728
2018-08-22T10:36:26.216Z,5704
2018-08-22T10:37:26.221Z,5692
2018-08-22T10:38:26.266Z,5680
2018-08-22T10:39:26.370Z,5668
2018-08-22T10:40:25.977Z,5656
2018-08-22T10:41:26.233Z,5640
2018-08-22T10:42:26.229Z,5620
2018-08-22T10:43:26.227Z,5608
2018-08-22T10:44:26.355Z,5596
2018-08-22T10:45:26.234Z,5584
2018-08-22T10:46:26.241Z,5576
2018-08-22T10:47:26.240Z,5564
2018-08-22T10:48:26.349Z,5564
2018-08-22T10:49:26.315Z,5556
2018-08-22T10:50:26.005Z,5548
2018-08-22T10:51:26.242Z,5540
2018-08-22T10:52:26.245Z,5528
2018-08-22T10:53:26.249Z,5516
2018-08-22T10:54:26.256Z,5496
2018-08-22T10:55:26.327Z,5484
2018-08-22T10:56:26.000Z,5472
2018-08-22T10:57:26.255Z,5456
2018-08-22T10:58:26.257Z,5444
2018-08-22T10:59:26.009Z,5432
2018-08-22T11:00:25.756Z,5416
2018-08-22T11:01:26.012Z,5396
2018-08-22T11:02:25.763Z,5384
2018-08-22T11:03:26.267Z,5368
2018-08-22T11:04:25.770Z,5352
2018-08-22T11:05:26.268Z,5344
2018-08-22T11:06:26.275Z,5336
2018-08-22T11:07:26.311Z,5336
2018-08-22T11:08:26.027Z,5336
2018-08-22T11:09:26.281Z,5344
2018-08-22T11:10:26.279Z,5356
2018-08-22T11:11:26.281Z,5364
2018-08-22T11:12:26.028Z,5356
2018-08-22T11:13:26.287Z,5348
2018-08-22T11:14:26.283Z,5336
2018-08-22T11:15:26.289Z,5320
2018-08-22T11:16:26.037Z,5308
2018-08-22T11:17:26.295Z,5300
2018-08-22T11:18:26.294Z,5296
2018-08-22T11:19:26.293Z,5292
2018-08-22T11:20:26.295Z,5284
2018-08-22T11:21:26.299Z,5272
2018-08-22T11:22:26.535Z,5248
2018-08-22T11:23:26.296Z,5228
2018-08-22T11:24:26.050Z,5204
2018-08-22T11:25:26.315Z,5108
2018-08-22T11:26:25.801Z,5160
2018-08-22T11:27:26.065Z,5148
2018-08-22T11:28:26.306Z,5136
2018-08-22T11:29:26.324Z,5124
2018-08-22T11:30:26.311Z,5132
2018-08-22T11:31:26.317Z,5132
2018-08-22T11:32:26.315Z,5136
2018-08-22T11:33:26.317Z,5132
2018-08-22T11:34:26.439Z,5136
2018-08-22T11:35:26.327Z,5132
2018-08-22T11:36:26.077Z,5132
2018-08-22T11:37:26.331Z,5132
2018-08-22T11:38:26.330Z,5132
2018-08-22T11:39:26.338Z,5128
2018-08-22T11:40:26.337Z,5132
2018-08-22T11:41:26.082Z,5128
2018-08-22T11:42:26.088Z,5120
2018-08-22T11:43:26.083Z,5108
2018-08-22T11:44:26.097Z,5092
2018-08-22T11:45:26.350Z,5080
2018-08-22T11:46:26.343Z,5076
2018-08-22T11:47:26.096Z,5076
2018-08-22T11:49:26.357Z,5060
2018-08-22T11:50:26.099Z,5044
2018-08-22T11:51:26.354Z,5032
2018-08-22T11:52:26.356Z,5020
2018-08-22T11:53:26.358Z,5000
2018-08-22T11:54:26.108Z,4988
2018-08-22T11:55:26.374Z,4976
2018-08-22T11:56:26.369Z,4972
2018-08-22T11:57:26.370Z,4964
2018-08-22T11:58:26.377Z,4964
2018-08-22T11:59:26.383Z,4960
2018-08-22T12:00:26.372Z,4956
2018-08-22T12:01:26.375Z,4944
2018-08-22T12:02:26.382Z,4936
2018-08-22T12:03:26.167Z,4924
2018-08-22T12:04:26.378Z,4908
2018-08-22T12:05:26.384Z,4900
2018-08-22T12:06:26.382Z,4892
2018-08-22T12:07:26.383Z,4892
2018-08-22T12:08:26.386Z,4900
2018-08-22T12:09:58.920Z,4900
2018-08-22T12:10:25.913Z,4900
2018-08-22T12:11:26.401Z,4900
2018-08-22T12:12:26.144Z,4896
2018-08-22T12:13:26.410Z,4896
2018-08-22T12:14:26.150Z,4884
2018-08-22T12:15:26.147Z,4872
2018-08-22T12:16:26.152Z,4860
2018-08-22T12:17:26.414Z,4856
2018-08-22T12:18:26.408Z,4852
2018-08-22T12:19:26.418Z,4848
2018-08-22T12:20:26.160Z,4836
2018-08-22T12:21:26.413Z,4816
2018-08-22T12:22:26.424Z,4796
2018-08-22T12:23:26.796Z,4784
2018-08-22T12:24:26.426Z,4776
2018-08-22T12:25:26.183Z,4768
2018-08-22T12:26:26.173Z,4768
2018-08-22T12:27:26.980Z,4760
2018-08-22T12:28:26.184Z,4756
2018-08-22T12:29:26.182Z,4752
2018-08-22T12:30:26.449Z,4748
2018-08-22T12:31:26.440Z,4744
2018-08-22T12:32:26.186Z,4732
2018-08-22T12:33:26.441Z,4724
2018-08-22T12:34:26.452Z,4712
2018-08-22T12:35:26.443Z,4696
2018-08-22T12:36:26.458Z,4680
2018-08-22T12:37:26.447Z,4664
2018-08-22T12:38:26.203Z,4652
2018-08-22T12:39:39.197Z,4644
2018-08-22T12:40:28.539Z,4636
2018-08-22T12:41:26.206Z,4632
2018-08-22T12:42:26.207Z,4632
2018-08-22T12:43:26.216Z,4640
2018-08-22T12:44:26.624Z,4656
2018-08-22T12:45:26.215Z,4660
2018-08-22T12:46:26.478Z,4664
2018-08-22T12:47:26.222Z,4696
2018-08-22T12:48:26.223Z,4732
2018-08-22T12:49:26.482Z,4768
2018-08-22T12:50:26.720Z,4760
2018-08-22T12:51:26.479Z,4752
2018-08-22T12:52:26.230Z,4684
2018-08-22T12:53:26.485Z,4664
2018-08-22T12:54:26.236Z,4668
2018-08-22T12:55:25.990Z,4624
2018-08-22T12:56:26.490Z,4612
2018-08-22T12:57:26.614Z,4600
2018-08-22T12:58:26.500Z,4584
2018-08-22T12:59:25.994Z,4576
2018-08-22T13:00:26.249Z,4560
2018-08-22T13:01:26.254Z,4540
2018-08-22T13:02:26.256Z,4528
2018-08-22T13:03:26.010Z,4504
2018-08-22T13:04:26.510Z,4488
2018-08-22T13:05:26.512Z,4472
2018-08-22T13:06:26.263Z,4456
2018-08-22T13:07:26.514Z,4444
2018-08-22T13:08:26.517Z,4440
2018-08-22T13:09:26.528Z,4432
2018-08-22T13:10:26.523Z,4424
2018-08-22T13:11:26.613Z,4416
2018-08-22T13:12:26.532Z,4420
2018-08-22T13:13:26.535Z,4464
2018-08-22T13:14:26.536Z,4488
2018-08-22T13:15:26.541Z,4456
2018-08-22T13:16:26.541Z,4376
2018-08-22T13:17:26.286Z,4336
2018-08-22T13:18:26.540Z,4316
2018-08-22T13:19:26.542Z,4308
2018-08-22T13:20:26.552Z,4300
2018-08-22T13:21:58.433Z,4284
2018-08-22T13:22:26.561Z,4284
2018-08-22T13:23:26.550Z,4292
2018-08-22T13:24:26.067Z,4296
2018-08-22T13:25:26.561Z,4296
2018-08-22T13:26:26.564Z,4300
2018-08-22T13:27:26.317Z,4300
2018-08-22T13:28:26.311Z,4296
2018-08-22T13:29:26.317Z,4296
2018-08-22T13:30:26.845Z,4296
2018-08-22T13:31:26.573Z,4292
2018-08-22T13:32:26.576Z,4284
2018-08-22T13:33:26.344Z,4280
2018-08-22T13:34:26.583Z,4284
2018-08-22T13:35:26.587Z,4280
2018-08-22T13:36:26.836Z,4280
2018-08-22T13:37:26.340Z,4284
2018-08-22T13:38:26.589Z,4288
2018-08-22T13:39:26.340Z,4292